Airfield :
LOGIN :

Register | Disclaimer

   EN    FR    IT 

 










Legend :    VFR   Marginal VFR   IFR   Intensive IFR   Very Intensive IFR
Visi :
Ceiling :
>= 8 km
>= 3000ft
5 to 8 km
1000 to 3000 ft
1500m to 5 km
500 to 1000 ft
800 to 1500m
200 to 500 ft
< 800m
< 200 ft
Symbols :   Thunderstorms  Fog  Heavy snow  Heavy precipitations  Wind > 20 kt
SIGMETs :     Misc.  Thunderstorms  Icing  Turbulence  Mountain Waves  Volcanic Ashes







- Airport Elevation : 939 ft


LKKB - Kbely Air Base

CURRENT METAR :
  • 180600Z VRB02KT CAVOK M03/M05 Q1023 NOSIG

EXPIRED METARs :
  • 180500Z 16003KT 120V210 9999 SCT034 BKN050 M03/M04 Q1023 NOSIG
  • 180400Z 16003KT 120V180 9999 BKN036 BKN050 M03/M05 Q1023 NOSIG

TAF TAF LKKB
Valid from the 18 at 06:00 until the 19 at 06:00 UTC


180500Z 1806/1906 VRB02KT 9999 SCT040
TEMPO 1806/1818 11005KT
TEMPO 1806/1812 BKN035
BECMG 1813/1815 CAVOK
No reported NOTAMs for that airfield.



MET'MAP, your aeronautical weather chart ! - Copyright ORBIFLY December 2007 - Disclaimer

ORBIFLY MET'MAP TEAM :

Programming & Development : Alexandra Zaïnal
Concept & Development : Baudouin d'Aumeries
Co-Development & Prog : Marc-Olivier Méhu
Technical & hardware support : Manuel Goepfert

Contact : metmap@orbifly.com




SOURCES & CREDITS :

   NOAA